createdAt,value
2022-08-26T00:00:22.696Z,0.9
2022-08-26T00:01:31.403Z,1.3
2022-08-26T00:02:41.070Z,1.6
2022-08-26T00:03:49.858Z,1.7
2022-08-26T00:04:59.536Z,1.6
2022-08-26T00:06:08.231Z,1.5
2022-08-26T00:07:17.972Z,1.2
2022-08-26T00:08:27.667Z,1.1
2022-08-26T00:09:37.384Z,1.4
2022-08-26T00:10:46.089Z,1.5
2022-08-26T00:11:55.796Z,1.2
2022-08-26T00:13:04.548Z,0.9
2022-08-26T00:14:14.200Z,1.4
2022-08-26T00:15:22.823Z,1.4
2022-08-26T00:16:32.506Z,1.1
2022-08-26T00:17:42.112Z,1.4
2022-08-26T00:18:49.786Z,1.1
2022-08-26T00:19:58.485Z,1
2022-08-26T00:21:08.170Z,1.4
2022-08-26T00:22:20.289Z,1.1
2022-08-26T00:23:28.837Z,1.8
2022-08-26T00:24:37.173Z,1.4
2022-08-26T00:25:46.821Z,1.1
2022-08-26T00:26:57.481Z,1.4
2022-08-26T00:28:06.126Z,0.9
2022-08-26T00:29:15.789Z,1.1
2022-08-26T00:30:26.566Z,1
2022-08-26T00:31:36.100Z,1
2022-08-26T00:32:46.693Z,1
2022-08-26T00:33:56.329Z,1.3
2022-08-26T00:35:05.000Z,1.1
2022-08-26T00:36:20.192Z,1.2
2022-08-26T00:37:23.519Z,0.9
2022-08-26T00:38:33.160Z,0.8
2022-08-26T00:39:42.827Z,1.6
2022-08-26T00:40:51.466Z,1.2
2022-08-26T00:42:01.152Z,1.4
2022-08-26T00:43:10.827Z,1.4
2022-08-26T00:44:18.451Z,1
2022-08-26T00:45:28.201Z,1.1
2022-08-26T00:46:36.782Z,1.4
2022-08-26T00:47:45.500Z,1.2
2022-08-26T00:48:55.179Z,1.3
2022-08-26T00:50:03.869Z,1
2022-08-26T00:51:13.538Z,1.6
2022-08-26T00:52:21.204Z,1.1
2022-08-26T00:53:29.879Z,1
2022-08-26T00:54:39.533Z,1.4
2022-08-26T00:55:49.172Z,1.2
2022-08-26T00:56:59.813Z,1.5
2022-08-26T00:58:08.493Z,1.3
2022-08-26T00:59:17.283Z,1.2
2022-08-26T01:00:26.855Z,1.5
2022-08-26T01:01:36.529Z,1.4
2022-08-26T01:02:47.444Z,1.3
2022-08-26T01:03:56.820Z,1.4
2022-08-26T01:05:04.498Z,1.6
2022-08-26T01:06:15.160Z,1.3
2022-08-26T01:07:24.807Z,1.7
2022-08-26T01:08:32.474Z,1.5
2022-08-26T01:09:42.108Z,1.5
2022-08-26T01:10:50.772Z,1.9
2022-08-26T01:11:59.440Z,1.3
2022-08-26T01:13:09.322Z,1.8
2022-08-26T01:14:19.123Z,1.7
2022-08-26T01:15:29.541Z,1.6
2022-08-26T01:16:40.309Z,1.4
2022-08-26T01:17:50.938Z,1.9
2022-08-26T01:19:01.623Z,1.7
2022-08-26T01:20:12.624Z,1.7
2022-08-26T01:21:22.989Z,1.8
2022-08-26T01:22:33.703Z,2
2022-08-26T01:23:41.352Z,1.9
2022-08-26T01:24:51.010Z,1.4
2022-08-26T01:26:00.656Z,1.5
2022-08-26T01:27:08.337Z,2.2
2022-08-26T01:28:18.022Z,1.8
2022-08-26T01:29:26.676Z,1.8
2022-08-26T01:30:35.347Z,1.9
2022-08-26T01:31:45.099Z,1.7
2022-08-26T01:32:52.714Z,1.5
2022-08-26T01:34:02.415Z,1.8
2022-08-26T01:35:12.116Z,1.6
2022-08-26T01:36:20.826Z,1.7
2022-08-26T01:37:30.549Z,1.5
2022-08-26T01:38:39.239Z,1.6
2022-08-26T01:39:48.974Z,1.6
2022-08-26T01:40:58.625Z,1.4
2022-08-26T01:42:10.258Z,1.7
2022-08-26T01:43:19.019Z,1.3
2022-08-26T01:44:27.663Z,1.6
2022-08-26T01:45:37.424Z,1.2
2022-08-26T01:46:47.175Z,1.2
2022-08-26T01:47:57.314Z,1.4
2022-08-26T01:49:06.693Z,1.8
2022-08-26T01:50:27.439Z,1.8
2022-08-26T01:51:26.031Z,1.5
2022-08-26T01:52:35.806Z,2
2022-08-26T01:53:46.071Z,1.9
2022-08-26T01:54:54.141Z,1.6
2022-08-26T01:56:03.867Z,1.4
2022-08-26T01:57:13.595Z,1.6
2022-08-26T01:58:23.293Z,1.8
2022-08-26T01:59:31.969Z,1.5
2022-08-26T02:00:39.676Z,1.7
2022-08-26T02:01:49.333Z,1.7
2022-08-26T02:02:58.026Z,1.7
2022-08-26T02:04:07.747Z,1.4
2022-08-26T02:05:17.408Z,1.3
2022-08-26T02:06:26.114Z,1.6
2022-08-26T02:07:35.827Z,1.2
2022-08-26T02:08:45.504Z,1.6
2022-08-26T02:09:54.188Z,1.8
2022-08-26T02:11:03.882Z,1.5
2022-08-26T02:12:13.568Z,1.5
2022-08-26T02:13:23.259Z,1.4
2022-08-26T02:14:31.918Z,1.1
2022-08-26T02:15:39.578Z,1.5
2022-08-26T02:16:49.247Z,1.4
2022-08-26T02:17:58.918Z,1.3
2022-08-26T02:19:08.562Z,1.2
2022-08-26T02:20:19.231Z,1.9
2022-08-26T02:21:27.888Z,1.6
2022-08-26T02:22:36.542Z,1.1
2022-08-26T02:23:46.208Z,1.4
2022-08-26T02:24:54.868Z,1.4
2022-08-26T02:26:04.548Z,1.3
2022-08-26T02:27:13.219Z,1.4
2022-08-26T02:28:22.867Z,1.5
2022-08-26T02:29:33.529Z,1.3
2022-08-26T02:30:43.162Z,1.4
2022-08-26T02:31:52.940Z,1.1
2022-08-26T02:33:02.527Z,1.2
2022-08-26T02:34:11.190Z,1.1
2022-08-26T02:35:20.824Z,1.7
2022-08-26T02:36:29.471Z,1.2
2022-08-26T02:37:38.149Z,1.4
2022-08-26T02:38:48.782Z,1.3
2022-08-26T02:39:57.467Z,1.6
2022-08-26T02:41:07.937Z,1.4
2022-08-26T02:42:16.733Z,1.5
2022-08-26T02:43:31.572Z,1.2
2022-08-26T02:44:37.148Z,1.2
2022-08-26T02:45:45.821Z,1
2022-08-26T02:46:55.496Z,1.4
2022-08-26T02:48:05.133Z,1.6
2022-08-26T02:49:12.827Z,1.1
2022-08-26T02:50:22.494Z,1.2
2022-08-26T02:51:32.154Z,1.5
2022-08-26T02:52:41.794Z,1.6
2022-08-26T02:53:51.475Z,1.3
2022-08-26T02:55:00.256Z,1.7
2022-08-26T02:56:08.912Z,1.4
2022-08-26T02:57:18.576Z,1.5
2022-08-26T02:58:27.216Z,1.3
2022-08-26T02:59:36.872Z,1.1
2022-08-26T03:00:52.473Z,1.3
2022-08-26T03:01:57.186Z,1.6
2022-08-26T03:03:06.960Z,1.9
2022-08-26T03:04:16.476Z,1.6
2022-08-26T03:05:26.139Z,1.2
2022-08-26T03:06:35.830Z,1.3
2022-08-26T03:07:45.486Z,1.2
2022-08-26T03:08:55.162Z,1.3
2022-08-26T03:10:08.623Z,1.1
2022-08-26T03:11:15.518Z,1.5
2022-08-26T03:12:25.562Z,1.4
2022-08-26T03:13:33.870Z,1.4
2022-08-26T03:14:41.524Z,1.1
2022-08-26T03:15:51.257Z,1.1
2022-08-26T03:16:59.872Z,1.4
2022-08-26T03:18:07.655Z,1.4
2022-08-26T03:19:17.505Z,1.2
2022-08-26T03:20:25.985Z,1.5
2022-08-26T03:21:35.665Z,1.1
2022-08-26T03:22:45.338Z,1.3
2022-08-26T03:23:54.030Z,1.2
2022-08-26T03:25:03.677Z,1.3
2022-08-26T03:26:11.323Z,1.7
2022-08-26T03:27:19.992Z,1.3
2022-08-26T03:28:29.634Z,1.3
2022-08-26T03:29:38.329Z,1.1
2022-08-26T03:30:47.971Z,1.5
2022-08-26T03:31:57.614Z,1.2
2022-08-26T03:33:05.297Z,1.6
2022-08-26T03:34:14.980Z,1.3
2022-08-26T03:35:24.661Z,1.4
2022-08-26T03:36:35.000Z,1.5
2022-08-26T03:37:42.950Z,1.5
2022-08-26T03:38:51.610Z,1.4
2022-08-26T03:40:01.345Z,1.5
2022-08-26T03:41:10.974Z,1.4
2022-08-26T03:42:21.406Z,1.1
2022-08-26T03:43:29.266Z,1.8
2022-08-26T03:44:36.930Z,1.5
2022-08-26T03:45:47.577Z,1.6
2022-08-26T03:46:56.367Z,1.5
2022-08-26T03:48:05.052Z,1.3
2022-08-26T03:49:15.732Z,1.6
2022-08-26T03:50:25.390Z,1.5
2022-08-26T03:51:35.048Z,1.5
2022-08-26T03:52:45.711Z,1.1
2022-08-26T03:53:53.352Z,1.1
2022-08-26T03:55:03.028Z,1.2
2022-08-26T03:56:11.706Z,1.1
2022-08-26T03:57:21.343Z,1.4
2022-08-26T03:58:31.085Z,1.4
2022-08-26T03:59:41.289Z,1.6
2022-08-26T04:00:51.439Z,1.6
2022-08-26T04:01:59.172Z,1.4
2022-08-26T04:03:09.859Z,1.3
2022-08-26T04:04:18.428Z,1.4
2022-08-26T04:05:28.312Z,1.3
2022-08-26T04:06:36.739Z,1.5
2022-08-26T04:07:46.376Z,1.3
2022-08-26T04:08:55.025Z,1.5
2022-08-26T04:10:04.711Z,1.5
2022-08-26T04:11:13.410Z,1.1
2022-08-26T04:12:22.079Z,1.7
2022-08-26T04:13:30.779Z,1.2
2022-08-26T04:14:39.410Z,1.4
2022-08-26T04:15:49.250Z,1.5
2022-08-26T04:16:58.919Z,1.4
2022-08-26T04:18:07.665Z,1.4
2022-08-26T04:19:17.374Z,1.2
2022-08-26T04:20:26.069Z,1.3
2022-08-26T04:21:35.958Z,1.4
2022-08-26T04:22:45.608Z,1.4
2022-08-26T04:23:54.283Z,1.5
2022-08-26T04:25:03.078Z,1.2
2022-08-26T04:26:13.789Z,1.4
2022-08-26T04:27:23.528Z,1.7
2022-08-26T04:28:34.243Z,1.4
2022-08-26T04:29:42.946Z,1.3
2022-08-26T04:30:51.698Z,1.2
2022-08-26T04:32:01.312Z,1.4
2022-08-26T04:33:12.846Z,1.3
2022-08-26T04:34:20.737Z,1.4
2022-08-26T04:35:30.397Z,1.4
2022-08-26T04:36:40.100Z,1.5
2022-08-26T04:37:50.778Z,1.4
2022-08-26T04:39:00.490Z,1.3
2022-08-26T04:40:09.166Z,1.5
2022-08-26T04:41:18.824Z,1.3
2022-08-26T04:42:28.498Z,1.5
2022-08-26T04:43:37.191Z,1.2
2022-08-26T04:44:47.892Z,1.4
2022-08-26T04:45:57.638Z,1.4
2022-08-26T04:47:07.355Z,1.6
2022-08-26T04:48:17.017Z,1.4
2022-08-26T04:49:27.550Z,1.6
2022-08-26T04:50:36.580Z,1.4
2022-08-26T04:51:44.277Z,1.3
2022-08-26T04:52:52.993Z,1.7
2022-08-26T04:54:02.689Z,1.3
2022-08-26T04:55:12.344Z,1.7
2022-08-26T04:56:23.063Z,1.9
2022-08-26T04:57:32.747Z,1.6
2022-08-26T04:58:42.478Z,1.6
2022-08-26T04:59:52.156Z,1.6
2022-08-26T05:00:59.890Z,1.4
2022-08-26T05:02:09.752Z,1.2
2022-08-26T05:03:19.430Z,1.3
2022-08-26T05:04:28.165Z,1.4
2022-08-26T05:05:37.827Z,1.6
2022-08-26T05:06:47.511Z,1.6
2022-08-26T05:07:55.223Z,1.8
2022-08-26T05:09:03.929Z,1.4
2022-08-26T05:10:13.598Z,1.3
2022-08-26T05:11:24.298Z,1.1
2022-08-26T05:12:34.024Z,1.6
2022-08-26T05:13:41.743Z,1
2022-08-26T05:14:51.454Z,1.4
2022-08-26T05:16:02.124Z,1.2
2022-08-26T05:17:11.975Z,1.3
2022-08-26T05:18:22.760Z,1.2
2022-08-26T05:19:31.079Z,1.1
2022-08-26T05:20:41.723Z,1.4
2022-08-26T05:21:51.393Z,1.4
2022-08-26T05:22:59.043Z,1.5
2022-08-26T05:24:08.716Z,1.5
2022-08-26T05:25:17.388Z,1.3
2022-08-26T05:26:27.064Z,1.9
2022-08-26T05:27:36.728Z,2
2022-08-26T05:28:44.389Z,2.1
2022-08-26T05:29:54.406Z,2.1
2022-08-26T05:31:03.760Z,1.9
2022-08-26T05:32:12.366Z,1.7
2022-08-26T05:33:22.076Z,1.8
2022-08-26T05:34:31.669Z,1.6
2022-08-26T05:35:41.343Z,2.1
2022-08-26T05:36:50.040Z,1.8
2022-08-26T05:37:58.698Z,1.8
2022-08-26T05:39:10.342Z,1.7
2022-08-26T05:40:17.080Z,2.2
2022-08-26T05:41:26.693Z,1.6
2022-08-26T05:42:36.424Z,1.8
2022-08-26T05:43:46.092Z,1.8
2022-08-26T05:44:56.338Z,1.7
2022-08-26T05:46:05.590Z,1.4
2022-08-26T05:47:14.061Z,1.7
2022-08-26T05:48:24.219Z,2.2
2022-08-26T05:49:32.411Z,1.3
2022-08-26T05:50:41.075Z,1.9
2022-08-26T05:51:50.721Z,1.5
2022-08-26T05:52:58.388Z,1.8
2022-08-26T05:54:10.293Z,1.8
2022-08-26T05:55:18.819Z,1.8
2022-08-26T05:56:26.489Z,1.7
2022-08-26T05:57:40.021Z,2
2022-08-26T05:58:46.218Z,1.4
2022-08-26T05:59:54.525Z,2
2022-08-26T06:01:04.181Z,2.4
2022-08-26T06:02:11.854Z,2.2
2022-08-26T06:03:22.546Z,2.4
2022-08-26T06:04:32.145Z,3.1
2022-08-26T06:05:41.854Z,2
2022-08-26T06:06:51.513Z,2.2
2022-08-26T06:08:00.176Z,1.4
2022-08-26T06:09:11.055Z,1.2
2022-08-26T06:10:31.922Z,0.9
2022-08-26T06:11:28.178Z,1.3
2022-08-26T06:12:37.860Z,0.9
2022-08-26T06:13:47.555Z,1.1
2022-08-26T06:14:55.227Z,1.5
2022-08-26T06:16:03.941Z,1.3
2022-08-26T06:17:12.559Z,1.2
2022-08-26T06:18:22.242Z,1
2022-08-26T06:19:32.871Z,0.9
2022-08-26T06:20:40.530Z,1.1
2022-08-26T06:21:51.261Z,0.8
2022-08-26T06:23:00.856Z,0.9
2022-08-26T06:24:09.527Z,0.9
2022-08-26T06:25:19.204Z,1
2022-08-26T06:26:26.870Z,1.2
2022-08-26T06:27:36.523Z,1
2022-08-26T06:28:46.205Z,0.9
2022-08-26T06:29:54.867Z,1
2022-08-26T06:31:04.625Z,0.7
2022-08-26T06:32:13.209Z,0.9
2022-08-26T06:33:20.895Z,0.9
2022-08-26T06:34:30.947Z,0.8
2022-08-26T06:35:38.234Z,1.2
2022-08-26T06:36:46.917Z,0.8
2022-08-26T06:37:56.592Z,0.9
2022-08-26T06:39:04.249Z,1
2022-08-26T06:40:12.997Z,1
2022-08-26T06:41:22.612Z,0.9
2022-08-26T06:42:30.254Z,0.7
2022-08-26T06:43:39.928Z,0.7
2022-08-26T06:44:49.635Z,0.8
2022-08-26T06:45:59.440Z,0.7
2022-08-26T06:47:09.034Z,0.7
2022-08-26T06:48:17.689Z,0.8
2022-08-26T06:49:27.767Z,0.8
2022-08-26T06:50:37.025Z,0.8
2022-08-26T06:51:44.699Z,1.1
2022-08-26T06:52:54.357Z,0.8
2022-08-26T06:54:04.023Z,0.6
2022-08-26T06:55:12.694Z,0.8
2022-08-26T06:56:21.364Z,1.4
2022-08-26T06:57:29.151Z,0.6
2022-08-26T06:58:39.808Z,0.9
2022-08-26T06:59:48.463Z,0.8
2022-08-26T07:01:02.692Z,0.7
2022-08-26T07:02:09.914Z,0.6
2022-08-26T07:03:19.467Z,0.6
2022-08-26T07:04:29.116Z,0.6
2022-08-26T07:05:37.787Z,0.8
2022-08-26T07:06:47.441Z,0.8
2022-08-26T07:07:57.162Z,1.1
2022-08-26T07:09:07.079Z,0.4
2022-08-26T07:10:16.735Z,0.6
2022-08-26T07:11:26.425Z,0.7
2022-08-26T07:12:36.115Z,0.9
2022-08-26T07:13:45.829Z,0.6
2022-08-26T07:14:55.551Z,0.7
2022-08-26T07:16:06.363Z,1
2022-08-26T07:17:15.934Z,0.8
2022-08-26T07:18:24.579Z,0.9
2022-08-26T07:19:34.257Z,0.5
2022-08-26T07:20:44.050Z,0.5
2022-08-26T07:21:52.721Z,0.7
2022-08-26T07:23:03.427Z,0.4
2022-08-26T07:24:13.109Z,0.5
2022-08-26T07:25:22.782Z,0.2
2022-08-26T07:26:32.490Z,0.4
2022-08-26T07:27:41.235Z,0.7
2022-08-26T07:28:48.996Z,0.3
2022-08-26T07:29:58.685Z,0.6
2022-08-26T07:31:07.503Z,0.5
2022-08-26T07:32:18.075Z,0.5
2022-08-26T07:33:27.741Z,0.7
2022-08-26T07:34:36.434Z,0.5
2022-08-26T07:35:45.142Z,0.5
2022-08-26T07:36:52.826Z,0.5
2022-08-26T07:38:02.561Z,0.5
2022-08-26T07:39:11.230Z,0.6
2022-08-26T07:40:19.075Z,0.8
2022-08-26T07:42:37.234Z,0.3
2022-08-26T07:43:45.950Z,0.5
2022-08-26T07:44:55.615Z,0.7
2022-08-26T07:46:03.271Z,0.8
2022-08-26T07:47:24.514Z,0.5
2022-08-26T07:48:22.555Z,1
2022-08-26T07:49:30.270Z,0.5
2022-08-26T07:50:49.614Z,0.6
2022-08-26T07:51:50.574Z,0.7
2022-08-26T07:53:00.286Z,0.5
2022-08-26T07:54:09.988Z,0.6
2022-08-26T07:55:18.693Z,0.6
2022-08-26T07:56:28.386Z,0.6
2022-08-26T07:57:37.037Z,0.9
2022-08-26T07:58:51.055Z,0.4
2022-08-26T07:59:58.463Z,0.5
2022-08-26T08:01:08.395Z,0.4
2022-08-26T08:02:17.036Z,1.1
2022-08-26T08:03:26.809Z,0.8
2022-08-26T08:04:36.593Z,0.6
2022-08-26T08:05:46.456Z,0.7
2022-08-26T08:06:56.120Z,0.8
2022-08-26T08:08:26.474Z,0.7
2022-08-26T08:09:16.537Z,0.8
2022-08-26T08:10:25.317Z,0.3
2022-08-26T08:11:35.995Z,0.9
2022-08-26T08:12:46.039Z,0.7
2022-08-26T08:13:56.199Z,0.4
2022-08-26T08:15:05.491Z,0.5
2022-08-26T08:16:14.226Z,0.5
2022-08-26T08:17:23.368Z,0.6
2022-08-26T08:18:33.116Z,0.7
2022-08-26T08:19:42.906Z,0.8
2022-08-26T08:20:54.577Z,0.5
2022-08-26T08:22:02.358Z,0.7
2022-08-26T08:23:11.073Z,0.6
2022-08-26T08:24:20.826Z,0.6
2022-08-26T08:25:29.517Z,0.4
2022-08-26T08:26:37.225Z,0.5
2022-08-26T08:27:46.986Z,0.4
2022-08-26T08:28:55.705Z,0.6
2022-08-26T08:30:05.491Z,0.6
2022-08-26T08:31:15.246Z,0.4
2022-08-26T08:32:22.871Z,0.4
2022-08-26T08:33:32.589Z,1
2022-08-26T08:35:51.107Z,0.5
2022-08-26T08:37:01.808Z,0.7
2022-08-26T08:38:11.532Z,0.4
2022-08-26T08:39:21.811Z,0.6
2022-08-26T08:40:31.020Z,0.8
2022-08-26T08:41:38.709Z,0.5
2022-08-26T08:42:48.435Z,0.8
2022-08-26T08:43:58.164Z,0.4
2022-08-26T08:45:06.973Z,0.5
2022-08-26T08:46:16.802Z,0.7
2022-08-26T08:47:25.489Z,0.5
2022-08-26T08:48:35.250Z,0.5
2022-08-26T08:49:44.960Z,0.5
2022-08-26T08:50:53.740Z,0.4
2022-08-26T08:52:04.143Z,0.8
2022-08-26T08:53:13.228Z,0.6
2022-08-26T08:54:22.867Z,0.6
2022-08-26T08:55:32.730Z,0.6
2022-08-26T08:56:43.447Z,0.4
2022-08-26T08:57:54.173Z,0.6
2022-08-26T08:59:02.976Z,0.4
2022-08-26T09:00:10.638Z,0.7
2022-08-26T09:01:19.537Z,0.7
2022-08-26T09:02:29.297Z,0.7
2022-08-26T09:03:37.862Z,0.5
2022-08-26T09:04:47.543Z,0.3
2022-08-26T09:05:56.261Z,0.6
2022-08-26T09:07:04.952Z,0.7
2022-08-26T09:08:14.576Z,0.4
2022-08-26T09:09:22.275Z,0.2
2022-08-26T09:10:32.037Z,0.5
2022-08-26T09:11:41.786Z,0.9
2022-08-26T09:12:49.512Z,0.5
2022-08-26T09:14:00.408Z,0.6
2022-08-26T09:15:07.891Z,0.7
2022-08-26T09:16:19.098Z,0.4
2022-08-26T09:17:27.288Z,0.6
2022-08-26T09:18:35.995Z,0.4
2022-08-26T09:19:45.745Z,0.5
2022-08-26T09:20:54.485Z,0.6
2022-08-26T09:22:08.328Z,0.5
2022-08-26T09:23:14.995Z,0.7
2022-08-26T09:24:28.457Z,0.6
2022-08-26T09:25:35.292Z,0.5
2022-08-26T09:26:44.999Z,0.5
2022-08-26T09:27:53.750Z,0.8
2022-08-26T09:29:03.449Z,0.3
2022-08-26T09:30:12.150Z,0.6
2022-08-26T09:31:19.956Z,0.5
2022-08-26T09:32:28.602Z,0.5
2022-08-26T09:33:37.439Z,0.3
2022-08-26T09:34:47.242Z,0.5
2022-08-26T09:35:56.940Z,0.3
2022-08-26T09:37:05.624Z,0.4
2022-08-26T09:38:15.690Z,0.4
2022-08-26T09:39:25.189Z,0.5
2022-08-26T09:40:34.754Z,0.4
2022-08-26T09:41:43.659Z,0.4
2022-08-26T09:42:51.359Z,0.5
2022-08-26T09:44:01.020Z,0.5
2022-08-26T09:45:08.701Z,0.5
2022-08-26T09:46:19.556Z,0.7
2022-08-26T09:47:29.107Z,0.4
2022-08-26T09:48:40.678Z,0.4
2022-08-26T09:49:49.467Z,0.5
2022-08-26T09:50:59.150Z,0.4
2022-08-26T09:52:08.801Z,0.5
2022-08-26T09:53:20.926Z,0.5
2022-08-26T09:54:30.114Z,0.6
2022-08-26T09:55:38.793Z,0.3
2022-08-26T09:56:48.531Z,0.4
2022-08-26T09:58:02.300Z,0.6
2022-08-26T09:59:10.904Z,0.6
2022-08-26T10:00:18.544Z,0.5
2022-08-26T10:01:27.333Z,0.3
2022-08-26T10:02:37.974Z,0.5
2022-08-26T10:03:45.656Z,0.5
2022-08-26T10:04:56.333Z,0.5
2022-08-26T10:06:06.035Z,0.7
2022-08-26T10:07:13.695Z,0.5
2022-08-26T10:08:24.407Z,0.8
2022-08-26T10:09:33.066Z,0.6
2022-08-26T10:10:42.702Z,0.6
2022-08-26T10:11:53.377Z,0.6
2022-08-26T10:13:01.071Z,0.5
2022-08-26T10:14:08.750Z,0.4
2022-08-26T10:15:18.390Z,0.6
2022-08-26T10:16:28.460Z,0.3
2022-08-26T10:17:37.752Z,0.6
2022-08-26T10:18:47.452Z,0.5
2022-08-26T10:19:58.159Z,0.7
2022-08-26T10:21:07.857Z,0.3
2022-08-26T10:22:15.517Z,0.6
2022-08-26T10:23:25.186Z,0.4
2022-08-26T10:24:33.858Z,0.5
2022-08-26T10:25:41.526Z,0.5
2022-08-26T10:26:51.190Z,0.2
2022-08-26T10:28:00.856Z,0.7
2022-08-26T10:29:09.496Z,0.6
2022-08-26T10:30:19.196Z,0.6
2022-08-26T10:31:29.011Z,0.6
2022-08-26T10:32:41.295Z,0.5
2022-08-26T10:33:48.203Z,0.4
2022-08-26T10:34:57.859Z,0.3
2022-08-26T10:36:07.570Z,0.4
2022-08-26T10:37:17.197Z,0.4
2022-08-26T10:38:24.862Z,0.3
2022-08-26T10:39:35.537Z,0.7
2022-08-26T10:40:43.302Z,0.6
2022-08-26T10:41:51.980Z,0.5
2022-08-26T10:43:01.704Z,0.7
2022-08-26T10:44:12.353Z,0.8
2022-08-26T10:45:22.023Z,0.4
2022-08-26T10:46:31.718Z,0.4
2022-08-26T10:47:39.387Z,0.4
2022-08-26T10:48:49.110Z,0.3
2022-08-26T10:50:02.902Z,0.4
2022-08-26T10:51:08.584Z,0.3
2022-08-26T10:52:18.221Z,0.4
2022-08-26T10:53:27.911Z,0.3
2022-08-26T10:54:38.599Z,0.6
2022-08-26T10:55:47.257Z,0.2
2022-08-26T10:56:55.928Z,0.3
2022-08-26T10:58:08.887Z,0.6
2022-08-26T10:59:17.239Z,0.5
2022-08-26T11:00:27.517Z,0.4
2022-08-26T11:01:36.575Z,0.2
2022-08-26T11:02:47.570Z,0.3
2022-08-26T11:03:57.999Z,0.5
2022-08-26T11:05:07.555Z,0.2
2022-08-26T11:06:17.358Z,0.4
2022-08-26T11:07:27.039Z,0.4
2022-08-26T11:08:36.704Z,0.4
2022-08-26T11:09:45.381Z,0.4
2022-08-26T11:10:55.051Z,0.3
2022-08-26T11:12:10.150Z,0.5
2022-08-26T11:13:16.414Z,0.3
2022-08-26T11:14:28.575Z,0.2
2022-08-26T11:15:36.884Z,0.6
2022-08-26T11:16:46.601Z,0.3
2022-08-26T11:17:55.308Z,0.8
2022-08-26T11:19:04.036Z,0.3
2022-08-26T11:20:14.620Z,0.5
2022-08-26T11:21:25.118Z,0.3
2022-08-26T11:22:35.062Z,0.3
2022-08-26T11:23:43.850Z,0.6
2022-08-26T11:24:52.653Z,0.4
2022-08-26T11:26:02.355Z,0.3
2022-08-26T11:27:11.067Z,0.4
2022-08-26T11:28:20.782Z,0.3
2022-08-26T11:29:30.572Z,0.4
2022-08-26T11:30:40.259Z,0.3
2022-08-26T11:31:50.124Z,0.4
2022-08-26T11:32:58.780Z,0.5
2022-08-26T11:34:08.813Z,0.5
2022-08-26T11:35:19.191Z,0.4
2022-08-26T11:36:27.904Z,0.3
2022-08-26T11:37:40.583Z,0.5
2022-08-26T11:38:47.373Z,0.2
2022-08-26T11:39:58.158Z,0.3
2022-08-26T11:41:08.476Z,0.3
2022-08-26T11:42:16.217Z,0.2
2022-08-26T11:43:26.983Z,0.4
2022-08-26T11:44:35.770Z,0.2
2022-08-26T11:45:45.616Z,0.4
2022-08-26T11:46:55.260Z,0.3
2022-08-26T11:48:03.070Z,0.1
2022-08-26T11:49:11.733Z,0.3
2022-08-26T11:50:21.507Z,0.4
2022-08-26T11:51:29.347Z,0.2
2022-08-26T11:52:40.063Z,0.4
2022-08-26T11:53:48.778Z,0.6
2022-08-26T11:54:58.519Z,0.2
2022-08-26T11:56:08.292Z,0.6
2022-08-26T11:57:16.996Z,0.2
2022-08-26T11:58:26.753Z,0.1
2022-08-26T12:00:46.128Z,0.5
2022-08-26T12:01:55.859Z,0.2
2022-08-26T12:03:05.862Z,0.6
2022-08-26T12:04:14.782Z,0.3
2022-08-26T12:05:25.579Z,0.4
2022-08-26T12:06:36.369Z,0.2
2022-08-26T12:07:46.042Z,0.2
2022-08-26T12:08:55.856Z,0
2022-08-26T12:10:05.872Z,0.3
2022-08-26T12:11:15.512Z,0.2
2022-08-26T12:12:25.224Z,0.2
2022-08-26T12:13:33.957Z,0.2
2022-08-26T12:14:43.708Z,0.2
2022-08-26T12:15:53.466Z,0.5
2022-08-26T12:17:03.193Z,0.1
2022-08-26T12:18:12.867Z,0.1
2022-08-26T12:19:21.581Z,0.2
2022-08-26T12:20:32.328Z,0.5
2022-08-26T12:21:42.072Z,0.3
2022-08-26T12:22:51.755Z,0.4
2022-08-26T12:24:01.561Z,0.2
2022-08-26T12:25:10.220Z,0.3
2022-08-26T12:26:19.931Z,0.3
2022-08-26T12:27:29.784Z,0.2
2022-08-26T12:28:37.496Z,0.2
2022-08-26T12:29:48.424Z,0.2
2022-08-26T12:30:57.970Z,0.4
2022-08-26T12:32:07.677Z,0.5
2022-08-26T12:33:22.631Z,0.2
2022-08-26T12:34:26.136Z,0.3
2022-08-26T12:35:34.941Z,0.1
2022-08-26T12:36:44.620Z,0.3
2022-08-26T12:37:53.365Z,0.2
2022-08-26T12:39:03.157Z,0.2
2022-08-26T12:40:13.031Z,0.3
2022-08-26T12:41:21.779Z,0.3
2022-08-26T12:42:31.531Z,0.2
2022-08-26T12:43:39.333Z,0.5
2022-08-26T12:44:53.562Z,0
2022-08-26T12:45:58.913Z,0.3
2022-08-26T12:47:06.568Z,0.2
2022-08-26T12:48:16.246Z,0.2
2022-08-26T12:49:25.951Z,0.3
2022-08-26T12:50:34.718Z,0.4
2022-08-26T12:51:44.420Z,0.2
2022-08-26T12:52:53.097Z,0.3
2022-08-26T12:54:01.799Z,0.3
2022-08-26T12:55:11.502Z,0.1
2022-08-26T12:56:20.407Z,0.4
2022-08-26T12:57:30.116Z,0.2
2022-08-26T12:58:39.823Z,0.1
2022-08-26T12:59:47.535Z,0.2
2022-08-26T13:00:57.338Z,0.3
2022-08-26T13:02:06.119Z,0.3
2022-08-26T13:03:15.690Z,0.2
2022-08-26T13:04:25.365Z,0.6
2022-08-26T13:05:35.053Z,0.3
2022-08-26T13:06:44.731Z,0.2
2022-08-26T13:07:53.451Z,0.1
2022-08-26T13:09:02.128Z,0.3
2022-08-26T13:10:10.815Z,0.2
2022-08-26T13:11:18.481Z,0.4
2022-08-26T13:12:27.139Z,0.2
2022-08-26T13:13:36.954Z,0.4
2022-08-26T13:14:46.631Z,0.1
2022-08-26T13:15:56.378Z,0.4
2022-08-26T13:17:06.088Z,0.1
2022-08-26T13:18:13.769Z,0.2
2022-08-26T13:19:23.547Z,0.2
2022-08-26T13:20:32.279Z,0.4
2022-08-26T13:21:42.006Z,0.3
2022-08-26T13:22:58.642Z,0.4
2022-08-26T13:24:01.472Z,0.2
2022-08-26T13:25:11.207Z,0.3
2022-08-26T13:26:20.939Z,0.3
2022-08-26T13:27:29.646Z,0.3
2022-08-26T13:28:39.335Z,0.4
2022-08-26T13:29:47.033Z,0.4
2022-08-26T13:30:56.884Z,0.2
2022-08-26T13:32:04.577Z,0.4
2022-08-26T13:33:14.613Z,0.3
2022-08-26T13:34:23.969Z,0.2
2022-08-26T13:35:32.638Z,0.4
2022-08-26T13:36:42.368Z,0.4
2022-08-26T13:37:52.073Z,0.2
2022-08-26T13:39:01.797Z,0.2
2022-08-26T13:40:11.578Z,0.3
2022-08-26T13:41:23.617Z,0.2
2022-08-26T13:42:31.881Z,0.5
2022-08-26T13:43:41.556Z,0.2
2022-08-26T13:44:50.247Z,0.5
2022-08-26T13:45:59.935Z,0.2
2022-08-26T13:47:08.632Z,0.4
2022-08-26T13:48:18.355Z,0.2
2022-08-26T13:49:27.169Z,0.4
2022-08-26T13:50:35.871Z,0.3
2022-08-26T13:51:44.607Z,0.3
2022-08-26T13:52:54.288Z,0.2
2022-08-26T13:54:04.042Z,0.3
2022-08-26T13:55:13.756Z,0.2
2022-08-26T13:56:23.492Z,0.3
2022-08-26T13:57:32.190Z,0.3
2022-08-26T13:58:41.879Z,0.4
2022-08-26T13:59:49.643Z,0.3
2022-08-26T14:00:59.437Z,0.4
2022-08-26T14:02:09.090Z,0.2
2022-08-26T14:03:17.850Z,0.3
2022-08-26T14:04:27.609Z,0.4
2022-08-26T14:05:35.286Z,0.3
2022-08-26T14:06:43.957Z,0.3
2022-08-26T14:07:54.679Z,0.4
2022-08-26T14:09:02.469Z,0.4
2022-08-26T14:10:12.253Z,0.4
2022-08-26T14:11:22.022Z,0.3
2022-08-26T14:12:30.747Z,0.3
2022-08-26T14:13:40.464Z,0.2
2022-08-26T14:14:49.224Z,0.3
2022-08-26T14:15:57.108Z,0.1
2022-08-26T14:17:06.829Z,0.3
2022-08-26T14:18:14.557Z,0.4
2022-08-26T14:19:25.266Z,0.2
2022-08-26T14:20:35.223Z,0.2
2022-08-26T14:21:43.953Z,0.1
2022-08-26T14:23:18.183Z,0.4
2022-08-26T14:24:04.529Z,0.4
2022-08-26T14:25:13.514Z,0.5
2022-08-26T14:26:28.474Z,0.2
2022-08-26T14:27:33.004Z,0.3
2022-08-26T14:28:43.820Z,0.5
2022-08-26T14:29:53.557Z,0.5
2022-08-26T14:31:01.396Z,0.3
2022-08-26T14:32:11.223Z,0.3
2022-08-26T14:33:20.994Z,0.4
2022-08-26T14:34:30.978Z,0.3
2022-08-26T14:35:40.707Z,0.1
2022-08-26T14:36:51.501Z,0.2
2022-08-26T14:38:00.223Z,0.2
2022-08-26T14:39:09.944Z,0.2
2022-08-26T14:40:18.718Z,0.2
2022-08-26T14:41:28.390Z,0.3
2022-08-26T14:42:38.133Z,0.4
2022-08-26T14:43:45.864Z,0.2
2022-08-26T14:44:55.594Z,0.6
2022-08-26T14:46:03.396Z,0.5
2022-08-26T14:47:13.086Z,0.2
2022-08-26T14:48:22.778Z,0.3
2022-08-26T14:49:30.547Z,0.2
2022-08-26T14:50:40.235Z,0.2
2022-08-26T14:51:50.073Z,0.4
2022-08-26T14:52:57.828Z,0.3
2022-08-26T14:54:07.495Z,0.3
2022-08-26T14:55:17.310Z,0.3
2022-08-26T14:56:27.023Z,0.2
2022-08-26T14:57:36.802Z,0.3
2022-08-26T14:58:44.459Z,0.4
2022-08-26T14:59:54.242Z,0.3
2022-08-26T15:01:04.203Z,0.2
2022-08-26T15:02:13.836Z,0.4
2022-08-26T15:03:24.352Z,0.2
2022-08-26T15:04:33.041Z,0.5
2022-08-26T15:05:44.908Z,0.3
2022-08-26T15:06:52.405Z,0.3
2022-08-26T15:08:02.189Z,0.2
2022-08-26T15:09:11.814Z,0.3
2022-08-26T15:10:20.527Z,0.4
2022-08-26T15:11:28.232Z,0.2
2022-08-26T15:12:37.914Z,0.4
2022-08-26T15:13:46.669Z,0.3
2022-08-26T15:14:55.360Z,0.3
2022-08-26T15:16:05.097Z,0.1
2022-08-26T15:17:13.719Z,0.5
2022-08-26T15:18:24.378Z,0.2
2022-08-26T15:19:33.031Z,0.5
2022-08-26T15:20:42.732Z,0.4
2022-08-26T15:21:52.394Z,0.3
2022-08-26T15:23:03.749Z,0.2
2022-08-26T15:24:09.692Z,0.2
2022-08-26T15:25:19.397Z,0.4
2022-08-26T15:26:28.071Z,0.2
2022-08-26T15:27:36.791Z,0.3
2022-08-26T15:28:43.463Z,0.3
2022-08-26T15:29:53.124Z,0.3
2022-08-26T15:31:02.872Z,0.5
2022-08-26T15:32:10.456Z,0.5
2022-08-26T15:33:20.132Z,0.5
2022-08-26T15:34:28.859Z,0.3
2022-08-26T15:35:38.532Z,0.3
2022-08-26T15:36:48.205Z,0.6
2022-08-26T15:37:57.054Z,0.4
2022-08-26T15:39:06.741Z,0.3
2022-08-26T15:40:15.527Z,0.3
2022-08-26T15:41:24.189Z,0.2
2022-08-26T15:42:33.904Z,0.5
2022-08-26T15:43:43.650Z,0.5
2022-08-26T15:44:52.396Z,0.5
2022-08-26T15:46:02.165Z,0.4
2022-08-26T15:47:11.878Z,0.2
2022-08-26T15:48:21.562Z,0.4
2022-08-26T15:49:31.321Z,0.3
2022-08-26T15:50:40.059Z,0.4
2022-08-26T15:51:49.813Z,0.5
2022-08-26T15:52:57.591Z,0.4
2022-08-26T15:54:07.292Z,0.4
2022-08-26T15:55:18.078Z,0.5
2022-08-26T15:56:26.785Z,0.2
2022-08-26T15:57:36.571Z,0.4
2022-08-26T15:58:45.294Z,0.6
2022-08-26T15:59:54.002Z,0.1